Time;durP1;ratioP1;P1;durP2;ratioP2;P2;SDS_P1;SDS_P2;PMS_P1;PMS_P2;Temp;Humidity;BMP_temperature;BMP_pressure;BME280_temperature;BME280_humidity;BME280_pressure;Samples;Min_cycle;Max_cycle;Signal;HPM_P1;HPM_P2
2022/03/05 00:00:27;;;;;;;73.00;22.38;;;;;;;0.37;100.00;101702.06;5087855;28;20054;-86
2022/03/05 00:02:52;;;;;;;80.57;24.20;;;;;;;0.27;100.00;101695.13;5103156;28;20382;-85
2022/03/05 00:05:19;;;;;;;75.97;24.67;;;;;;;0.33;100.00;101703.94;5084980;28;20054;-86
2022/03/05 00:07:45;;;;;;;80.82;23.70;;;;;;;0.32;100.00;101706.66;5070020;28;20028;-85
2022/03/05 00:10:11;;;;;;;85.13;23.63;;;;;;;0.17;100.00;101673.78;5085549;28;20036;-86
2022/03/05 00:12:37;;;;;;;85.72;25.42;;;;;;;0.26;100.00;101709.50;5086732;28;20033;-86
2022/03/05 00:15:03;;;;;;;78.97;23.70;;;;;;;0.28;100.00;101708.53;5085361;28;20037;-85
2022/03/05 00:17:28;;;;;;;75.75;23.15;;;;;;;0.20;100.00;101709.63;5086994;28;20031;-85
2022/03/05 00:19:54;;;;;;;80.38;25.48;;;;;;;0.17;100.00;101710.59;5086308;28;20049;-86
2022/03/05 00:22:20;;;;;;;76.45;24.58;;;;;;;0.05;100.00;101692.00;5069190;28;20136;-86
2022/03/05 00:24:46;;;;;;;83.55;26.85;;;;;;;0.08;100.00;101700.91;5086664;28;20033;-86
2022/03/05 00:27:11;;;;;;;84.45;24.65;;;;;;;0.05;100.00;101697.38;5083556;28;20037;-85
2022/03/05 00:29:37;;;;;;;103.50;26.75;;;;;;;0.06;100.00;101713.50;5065123;28;20025;-85
2022/03/05 00:32:03;;;;;;;87.22;24.35;;;;;;;0.01;100.00;101693.00;5061412;28;20040;-85
2022/03/05 00:34:28;;;;;;;81.07;25.00;;;;;;;-0.02;100.00;101694.84;5082055;28;20543;-84
2022/03/05 00:36:54;;;;;;;87.55;25.75;;;;;;;-0.06;100.00;101698.50;5082557;28;20085;-84
2022/03/05 00:39:19;;;;;;;88.22;27.38;;;;;;;-0.30;100.00;101673.00;5081491;28;20178;-85
2022/03/05 00:41:45;;;;;;;92.32;27.52;;;;;;;-0.14;100.00;101705.84;5089920;28;20024;-85
2022/03/05 00:44:10;;;;;;;90.72;27.02;;;;;;;-0.25;100.00;101703.38;5083752;28;20033;-85
2022/03/05 00:46:36;;;;;;;98.15;28.27;;;;;;;-0.25;100.00;101702.50;5067988;28;20439;-84
2022/03/05 00:49:01;;;;;;;106.70;27.83;;;;;;;-0.19;100.00;101710.47;5083707;28;20024;-85
2022/03/05 00:51:28;;;;;;;101.13;28.73;;;;;;;-0.25;100.00;101702.50;5083522;28;20048;-85
2022/03/05 00:53:54;;;;;;;93.18;27.27;;;;;;;-0.25;100.00;101698.00;5083610;28;21870;-85
2022/03/05 00:56:19;;;;;;;107.47;27.20;;;;;;;-0.32;100.00;101696.34;5084551;28;20028;-84
2022/03/05 00:58:45;;;;;;;94.35;28.38;;;;;;;-0.30;100.00;101705.28;5089737;28;20483;-85
2022/03/05 01:01:10;;;;;;;110.75;30.88;;;;;;;-0.30;100.00;101699.91;5100877;28;20036;-84
2022/03/05 01:03:36;;;;;;;97.05;28.98;;;;;;;-0.30;100.00;101702.59;5083057;28;20025;-84
2022/03/05 01:06:02;;;;;;;113.78;29.88;;;;;;;-0.28;100.00;101698.09;5079218;28;20025;-84
2022/03/05 01:08:27;;;;;;;105.47;31.00;;;;;;;-0.35;100.00;101700.94;5081806;28;20028;-84
2022/03/05 01:10:52;;;;;;;109.00;29.65;;;;;;;-0.45;100.00;101701.09;5100391;28;20074;-84
2022/03/05 01:13:18;;;;;;;111.80;30.83;;;;;;;-0.42;100.00;101700.16;5084923;28;20005;-84
2022/03/05 01:15:43;;;;;;;113.38;30.52;;;;;;;-0.54;100.00;101695.91;5102357;28;20036;-84
2022/03/05 01:18:09;;;;;;;110.40;31.15;;;;;;;-0.49;100.00;101702.09;5066237;28;20036;-84
2022/03/05 01:20:34;;;;;;;107.93;30.42;;;;;;;-0.56;100.00;101690.56;5062067;28;20044;-84
2022/03/05 01:23:00;;;;;;;107.68;31.20;;;;;;;-0.54;100.00;101698.59;5079188;28;20093;-84
2022/03/05 01:25:25;;;;;;;116.60;31.95;;;;;;;-0.66;100.00;101664.75;5063107;28;20050;-85
2022/03/05 01:27:51;;;;;;;123.57;32.50;;;;;;;-0.56;100.00;101697.72;5100222;28;20036;-85
2022/03/05 01:30:17;;;;;;;122.85;32.28;;;;;;;-0.60;100.00;101696.91;5086988;28;21764;-85
2022/03/05 01:32:42;;;;;;;124.90;33.30;;;;;;;-0.59;100.00;101698.69;5099255;28;20028;-85
2022/03/05 01:35:10;;;;;;;133.55;32.13;;;;;;;-0.70;100.00;101679.19;5080169;28;20422;-85
2022/03/05 01:37:37;;;;;;;123.05;32.25;;;;;;;-0.64;100.00;101691.59;5076719;28;20055;-84
2022/03/05 01:40:04;;;;;;;121.00;32.90;;;;;;;-0.63;100.00;101680.81;5076481;28;20475;-85
2022/03/05 01:42:29;;;;;;;119.03;31.55;;;;;;;-0.64;100.00;101689.81;5100635;28;20036;-84
2022/03/05 01:44:55;;;;;;;123.25;34.97;;;;;;;-0.65;100.00;101688.03;5068028;28;20085;-84
2022/03/05 01:47:20;;;;;;;131.10;34.38;;;;;;;-0.66;100.00;101697.00;5078712;28;20029;-84
2022/03/05 01:49:46;;;;;;;124.18;34.30;;;;;;;-0.72;100.00;101686.41;5079886;28;20024;-84
2022/03/05 01:52:11;;;;;;;126.78;33.85;;;;;;;-0.68;100.00;101696.16;5096981;28;20028;-84
2022/03/05 01:54:39;;;;;;;127.70;32.72;;;;;;;-0.82;100.00;101684.78;5085463;28;20132;-84
2022/03/05 01:57:05;;;;;;;137.90;36.70;;;;;;;-0.75;100.00;101690.00;5078959;28;20020;-84
2022/03/05 01:59:32;;;;;;;134.27;34.50;;;;;;;-0.75;100.00;101678.38;5067009;28;20036;-85
2022/03/05 02:01:58;;;;;;;139.57;34.20;;;;;;;-0.73;100.00;101686.44;5079720;28;20043;-84
2022/03/05 02:04:23;;;;;;;153.25;35.17;;;;;;;-0.69;100.00;101694.38;5079144;28;20028;-84
2022/03/05 02:06:50;;;;;;;139.98;33.38;;;;;;;-0.79;100.00;101679.34;5062502;28;20048;-84
2022/03/05 02:09:16;;;;;;;138.98;35.53;;;;;;;-0.80;100.00;101683.84;5062702;28;20024;-84
2022/03/05 02:11:42;;;;;;;160.00;37.78;;;;;;;-0.84;100.00;101679.41;5078999;28;20056;-84
2022/03/05 02:14:08;;;;;;;148.80;37.63;;;;;;;-0.98;100.00;101658.19;5077719;28;20044;-84
2022/03/05 02:16:37;;;;;;;133.80;34.13;;;;;;;-0.78;100.00;101689.19;5079373;28;20024;-84
2022/03/05 02:19:04;;;;;;;135.38;35.28;;;;;;;-0.84;100.00;101692.00;5078694;28;20038;-85
2022/03/05 02:21:30;;;;;;;139.60;36.08;;;;;;;-0.90;100.00;101675.97;5095275;28;20032;-84
2022/03/05 02:23:56;;;;;;;157.25;36.30;;;;;;;-0.90;100.00;101682.25;5062167;28;20032;-85
2022/03/05 02:26:22;;;;;;;138.73;34.53;;;;;;;-0.86;100.00;101689.31;5086343;28;20028;-85
2022/03/05 02:28:49;;;;;;;170.60;37.50;;;;;;;-1.00;100.00;101662.72;5067128;28;20549;-84
2022/03/05 02:31:14;;;;;;;175.85;37.78;;;;;;;-0.94;100.00;101662.56;5062800;28;20404;-85
2022/03/05 02:33:41;;;;;;;146.52;35.42;;;;;;;-0.94;100.00;101676.00;5093071;28;20073;-84
2022/03/05 02:36:07;;;;;;;164.77;39.38;;;;;;;-0.96;100.00;101677.84;5061673;28;20127;-84
2022/03/05 02:38:32;;;;;;;139.13;35.72;;;;;;;-0.97;100.00;101675.19;5080212;28;20056;-84
2022/03/05 02:40:58;;;;;;;179.05;39.58;;;;;;;-1.04;100.00;101658.28;5080369;28;20031;-83
2022/03/05 02:43:25;;;;;;;171.35;37.20;;;;;;;-1.05;100.00;101667.28;5078749;28;20028;-85
2022/03/05 02:45:51;;;;;;;155.18;36.63;;;;;;;-1.15;100.00;101666.56;5093681;28;20107;-84
2022/03/05 02:48:18;;;;;;;171.93;35.72;;;;;;;-1.15;100.00;101671.03;5061766;28;20082;-85
2022/03/05 02:50:45;;;;;;;155.68;35.83;;;;;;;-1.15;100.00;101677.31;5078884;28;20043;-85
2022/03/05 02:53:11;;;;;;;161.93;36.30;;;;;;;-1.23;100.00;101662.22;5061616;28;20044;-85
2022/03/05 02:55:38;;;;;;;158.02;35.67;;;;;;;-1.23;100.00;101671.19;5078546;28;20067;-84
2022/03/05 02:58:04;;;;;;;158.65;37.42;;;;;;;-1.17;100.00;101667.50;5078901;28;20082;-84
2022/03/05 03:00:30;;;;;;;162.27;35.65;;;;;;;-1.10;100.00;101669.13;5079075;28;20028;-85
2022/03/05 03:02:56;;;;;;;165.55;38.03;;;;;;;-1.14;100.00;101659.38;5063161;28;20055;-85
2022/03/05 03:05:21;;;;;;;169.38;37.83;;;;;;;-1.17;100.00;101657.63;5107589;28;20096;-85
2022/03/05 03:07:48;;;;;;;156.60;39.35;;;;;;;-1.18;100.00;101663.91;5098371;28;20084;-85
2022/03/05 03:10:15;;;;;;;177.55;37.72;;;;;;;-1.18;100.00;101663.00;5114134;28;20043;-85
2022/03/05 03:12:41;;;;;;;168.77;37.03;;;;;;;-1.20;100.00;101657.66;5078716;28;20028;-85
2022/03/05 03:15:09;;;;;;;161.07;38.28;;;;;;;-1.19;100.00;101658.56;5095933;28;20028;-84
2022/03/05 03:17:40;;;;;;;162.05;36.97;;;;;;;-1.23;100.00;101657.75;5099934;28;20028;-86
2022/03/05 03:20:06;;;;;;;191.57;39.47;;;;;;;-1.26;100.00;101665.84;5080424;28;20530;-85
2022/03/05 03:22:32;;;;;;;158.20;39.67;;;;;;;-1.37;100.00;101657.97;5079083;28;20021;-86
2022/03/05 03:24:57;;;;;;;145.13;36.70;;;;;;;-1.39;100.00;101651.75;5078933;28;20505;-85
2022/03/05 03:27:23;;;;;;;156.02;35.65;;;;;;;-1.37;100.00;101651.72;5086688;28;20514;-86
2022/03/05 03:29:48;;;;;;;176.57;37.78;;;;;;;-1.37;100.00;101657.09;5104057;28;20024;-86
2022/03/05 03:32:14;;;;;;;165.88;38.33;;;;;;;-1.47;100.00;101637.56;5069459;28;20099;-86
2022/03/05 03:34:39;;;;;;;167.70;36.75;;;;;;;-1.43;100.00;101647.31;5078542;28;20506;-85
2022/03/05 03:37:04;;;;;;;191.45;39.85;;;;;;;-1.43;100.00;101651.81;5077818;28;20116;-86
2022/03/05 03:39:30;;;;;;;176.73;38.55;;;;;;;-1.43;100.00;101649.13;5084484;28;20530;-85
2022/03/05 03:41:55;;;;;;;163.70;37.08;;;;;;;-1.50;100.00;101638.47;5089447;28;20060;-85
2022/03/05 03:44:21;;;;;;;163.93;38.08;;;;;;;-1.54;100.00;101652.88;5077663;28;20033;-85
2022/03/05 03:46:47;;;;;;;176.43;39.33;;;;;;;-1.55;100.00;101644.84;5077657;28;20455;-85
2022/03/05 03:49:12;;;;;;;179.15;39.55;;;;;;;-1.53;100.00;101657.31;5095249;28;20499;-86
2022/03/05 03:51:38;;;;;;;171.90;36.75;;;;;;;-1.68;100.00;101636.09;5061626;28;20037;-85
2022/03/05 03:54:03;;;;;;;199.35;40.83;;;;;;;-1.55;100.00;101652.91;5062024;28;20041;-84
2022/03/05 03:56:29;;;;;;;172.18;35.13;;;;;;;-1.57;100.00;101660.09;5105444;28;20028;-84
2022/03/05 03:58:54;;;;;;;170.95;38.63;;;;;;;-1.59;100.00;101654.75;5078278;28;20033;-85
2022/03/05 04:01:20;;;;;;;182.18;38.95;;;;;;;-1.58;100.00;101661.88;5094817;28;20025;-85
2022/03/05 04:03:45;;;;;;;172.98;41.10;;;;;;;-1.59;100.00;101662.81;5061089;28;20469;-85
2022/03/05 04:06:11;;;;;;;188.40;39.20;;;;;;;-1.57;100.00;101660.97;5061957;28;20043;-85
2022/03/05 04:08:42;;;;;;;168.75;38.67;;;;;;;-1.69;100.00;101637.00;5077873;28;20468;-84
2022/03/05 04:11:13;;;;;;;183.85;39.10;;;;;;;-1.55;100.00;101660.97;5078328;28;20051;-83
2022/03/05 04:13:39;;;;;;;183.63;41.00;;;;;;;-1.60;100.00;101661.03;5099863;28;20031;-84
2022/03/05 04:16:06;;;;;;;178.65;38.78;;;;;;;-1.65;100.00;101664.72;5086055;28;20024;-84
2022/03/05 04:18:32;;;;;;;190.15;40.78;;;;;;;-1.62;100.00;101670.00;5086054;28;20376;-84
2022/03/05 04:20:57;;;;;;;182.38;37.90;;;;;;;-1.56;100.00;101669.91;5098580;28;20100;-84
2022/03/05 04:23:23;;;;;;;194.68;40.55;;;;;;;-1.62;100.00;101664.63;5096461;28;20508;-84
2022/03/05 04:25:49;;;;;;;183.65;40.03;;;;;;;-1.62;100.00;101678.06;5079511;28;20021;-84
2022/03/05 04:28:15;;;;;;;205.90;41.60;;;;;;;-1.72;100.00;101671.94;5089468;28;20020;-87
2022/03/05 04:30:40;;;;;;;202.40;42.38;;;;;;;-1.64;100.00;101677.19;5086061;28;20039;-87
2022/03/05 04:33:06;;;;;;;182.50;38.85;;;;;;;-1.79;100.00;101663.09;5065910;28;20102;-86
2022/03/05 04:35:32;;;;;;;185.95;39.13;;;;;;;-1.87;100.00;101665.91;5078285;28;20427;-86
2022/03/05 04:37:57;;;;;;;186.38;40.38;;;;;;;-1.93;100.00;101663.31;5078833;28;20021;-85
2022/03/05 04:40:23;;;;;;;170.77;37.92;;;;;;;-1.89;100.00;101675.75;5082154;28;20074;-85
2022/03/05 04:42:49;;;;;;;180.98;38.58;;;;;;;-1.90;100.00;101676.69;5096026;28;20032;-84
2022/03/05 04:45:15;;;;;;;182.93;39.88;;;;;;;-1.86;100.00;101678.41;5073318;28;20008;-85
2022/03/05 04:47:41;;;;;;;193.85;39.80;;;;;;;-1.78;100.00;101689.03;5082305;28;20028;-84
2022/03/05 04:50:09;;;;;;;179.25;40.72;;;;;;;-1.78;100.00;101689.03;5092033;28;20029;-84
2022/03/05 04:52:34;;;;;;;172.55;37.80;;;;;;;-1.77;100.00;101692.59;5081362;28;20032;-84
2022/03/05 04:55:01;;;;;;;182.40;39.30;;;;;;;-1.80;100.00;101689.94;5064132;28;20556;-84
2022/03/05 04:57:26;;;;;;;197.05;35.88;;;;;;;-1.86;100.00;101699.00;5097200;28;20081;-85
2022/03/05 04:59:52;;;;;;;192.20;38.00;;;;;;;-1.95;100.00;101697.34;5097767;28;20044;-86
2022/03/05 05:02:18;;;;;;;185.52;38.45;;;;;;;-1.99;100.00;101695.59;5079934;28;20029;-85
2022/03/05 05:04:44;;;;;;;186.85;38.83;;;;;;;-1.94;100.00;101691.03;5069772;28;20112;-85
2022/03/05 05:07:09;;;;;;;180.90;39.95;;;;;;;-1.93;100.00;101691.94;5088111;28;20048;-85
2022/03/05 05:09:35;;;;;;;194.55;41.13;;;;;;;-1.97;100.00;101699.13;5064176;28;20032;-84
2022/03/05 05:12:01;;;;;;;214.40;41.95;;;;;;;-1.97;100.00;101690.19;5097873;28;20089;-85
2022/03/05 05:14:26;;;;;;;195.32;39.03;;;;;;;-1.99;100.00;101697.38;5080971;28;20036;-84
2022/03/05 05:16:52;;;;;;;209.48;40.17;;;;;;;-2.02;100.00;101695.63;5063485;28;20025;-84
2022/03/05 05:19:29;;;;;;;227.63;41.03;;;;;;;-2.00;100.00;101693.81;5081298;28;20052;-85
2022/03/05 05:22:00;;;;;;;199.20;40.08;;;;;;;-2.03;100.00;101694.75;5081575;28;20139;-84
2022/03/05 05:24:28;;;;;;;186.15;36.63;;;;;;;-2.01;100.00;101701.91;5104154;28;20029;-85
2022/03/05 05:26:54;;;;;;;192.75;35.78;;;;;;;-2.03;100.00;101712.66;5078025;28;20548;-85
2022/03/05 05:29:21;;;;;;;190.90;36.45;;;;;;;-2.11;100.00;101710.06;5083876;28;20032;-84
2022/03/05 05:31:47;;;;;;;205.85;36.95;;;;;;;-2.08;100.00;101703.78;5064207;28;20532;-84
2022/03/05 05:34:13;;;;;;;202.60;39.50;;;;;;;-2.15;100.00;101712.78;5065482;28;20042;-85
2022/03/05 05:36:39;;;;;;;211.48;38.80;;;;;;;-2.19;100.00;101716.44;5065275;28;20060;-84
2022/03/05 05:39:06;;;;;;;209.75;38.75;;;;;;;-2.28;100.00;101718.31;5087426;28;20044;-85
2022/03/05 05:41:33;;;;;;;201.90;36.97;;;;;;;-2.33;100.00;101717.47;5079371;28;20033;-85
2022/03/05 05:43:58;;;;;;;174.85;36.38;;;;;;;-2.34;100.00;101718.38;5082417;28;20033;-84
2022/03/05 05:46:24;;;;;;;221.35;38.03;;;;;;;-2.17;100.00;101725.34;5098848;28;20029;-85
2022/03/05 05:48:49;;;;;;;190.05;35.92;;;;;;;-2.25;100.00;101726.34;5113130;28;20115;-85
2022/03/05 05:51:15;;;;;;;196.43;38.38;;;;;;;-2.17;100.00;101728.03;5080302;28;20044;-84
2022/03/05 05:53:41;;;;;;;220.02;38.70;;;;;;;-2.32;100.00;101699.59;5064263;28;20040;-85
2022/03/05 05:56:08;;;;;;;188.48;37.47;;;;;;;-2.20;100.00;101728.06;5082351;28;20055;-84
2022/03/05 05:58:36;;;;;;;220.75;39.40;;;;;;;-2.23;100.00;101727.19;5101154;28;20028;-84
2022/03/05 06:01:02;;;;;;;182.30;36.70;;;;;;;-2.32;100.00;101727.28;5083191;28;20060;-84
2022/03/05 06:03:28;;;;;;;187.27;36.40;;;;;;;-2.27;100.00;101716.53;5099364;28;20024;-84
2022/03/05 06:05:57;;;;;;;201.80;36.00;;;;;;;-2.30;100.00;101727.28;5078549;28;20479;-86
2022/03/05 06:08:23;;;;;;;198.40;36.20;;;;;;;-2.28;100.00;101709.38;5061114;28;20028;-83
2022/03/05 06:10:49;;;;;;;214.13;38.08;;;;;;;-2.22;100.00;101711.97;5063507;28;20032;-84
2022/03/05 06:13:15;;;;;;;216.95;36.75;;;;;;;-2.17;100.00;101720.84;5097740;28;20028;-84
2022/03/05 06:15:41;;;;;;;218.75;38.47;;;;;;;-2.21;100.00;101719.13;5080783;28;20123;-84
2022/03/05 06:18:06;;;;;;;201.85;36.58;;;;;;;-2.25;100.00;101731.69;5080818;28;20028;-86
2022/03/05 06:20:32;;;;;;;194.68;36.42;;;;;;;-2.21;100.00;101721.81;5081867;28;20059;-84
2022/03/05 06:22:57;;;;;;;218.23;38.97;;;;;;;-2.23;100.00;101712.88;5070772;28;20385;-86
2022/03/05 06:25:23;;;;;;;218.43;37.72;;;;;;;-2.28;100.00;101709.38;5064270;28;20020;-84
2022/03/05 06:27:48;;;;;;;209.32;36.63;;;;;;;-2.25;100.00;101717.38;5083053;28;20475;-85
2022/03/05 06:30:14;;;;;;;209.27;37.70;;;;;;;-2.20;100.00;101725.38;5065321;28;20039;-82
2022/03/05 06:32:39;;;;;;;212.55;37.85;;;;;;;-2.32;100.00;101713.88;5083299;28;20071;-87
2022/03/05 06:35:06;;;;;;;227.27;39.55;;;;;;;-2.16;100.00;101738.72;5064678;28;20054;-85
2022/03/05 06:37:32;;;;;;;204.73;37.35;;;;;;;-2.28;100.00;101706.69;5080038;28;20013;-84
2022/03/05 06:39:58;;;;;;;220.27;39.20;;;;;;;-2.13;100.00;101724.38;5086191;28;20064;-86
2022/03/05 06:42:24;;;;;;;226.45;39.60;;;;;;;-2.17;100.00;101731.59;5044833;28;20508;-83
2022/03/05 06:44:50;;;;;;;232.50;36.65;;;;;;;-2.12;100.00;101740.47;5076092;28;20069;-83
2022/03/05 06:47:16;;;;;;;223.50;38.90;;;;;;;-2.12;100.00;101726.16;5081716;28;20032;-84
2022/03/05 06:49:42;;;;;;;212.32;35.63;;;;;;;-2.09;100.00;101721.66;5072437;28;20115;-85
2022/03/05 06:52:10;;;;;;;229.43;38.58;;;;;;;-2.01;100.00;101716.19;5077918;28;20114;-84
2022/03/05 06:54:36;;;;;;;232.27;41.15;;;;;;;-1.90;100.00;101724.13;5065746;28;20052;-85
2022/03/05 06:57:02;;;;;;;235.10;43.28;;;;;;;-1.83;100.00;101720.44;5055381;28;20044;-81
2022/03/05 06:59:28;;;;;;;266.92;43.25;;;;;;;-1.65;100.00;101729.13;5094907;28;20028;-82
2022/03/05 07:01:53;;;;;;;210.75;39.55;;;;;;;-1.55;100.00;101726.28;5077903;28;20021;-81
2022/03/05 07:04:19;;;;;;;214.00;37.22;;;;;;;-1.40;100.00;101729.66;5075729;28;20036;-83
2022/03/05 07:06:44;;;;;;;211.90;38.95;;;;;;;-1.31;100.00;101724.16;5097193;28;20036;-84
2022/03/05 07:09:10;;;;;;;194.93;35.28;;;;;;;-1.09;100.00;101735.41;5083613;28;20064;-83
2022/03/05 07:11:35;;;;;;;205.40;38.63;;;;;;;-0.93;100.00;101736.06;5079814;28;20037;-82
2022/03/05 07:14:01;;;;;;;187.43;36.03;;;;;;;-0.80;100.00;101743.00;5089290;28;20042;-83
2022/03/05 07:16:27;;;;;;;180.38;36.63;;;;;;;-0.76;100.00;101749.19;5080477;28;20025;-84
2022/03/05 07:18:53;;;;;;;164.98;31.92;;;;;;;-0.63;100.00;101744.50;5079929;28;20051;-83
2022/03/05 07:21:18;;;;;;;168.90;33.60;;;;;;;-0.54;100.00;101738.94;5060125;28;20033;-85
2022/03/05 07:23:44;;;;;;;136.43;29.88;;;;;;;-0.34;100.00;101751.09;5090520;28;20082;-83
2022/03/05 07:26:09;;;;;;;141.15;28.45;;;;;;;-0.28;100.00;101759.97;5100275;28;20025;-83
2022/03/05 07:28:35;;;;;;;120.88;28.73;;;;;;;-0.31;100.00;101762.72;5087423;28;20084;-84
2022/03/05 07:31:00;;;;;;;107.75;28.63;;;;;;;-0.23;100.00;101766.16;5086308;28;20084;-84
2022/03/05 07:33:26;;;;;;;105.88;25.65;;;;;;;-0.33;100.00;101734.06;5097971;28;20036;-84
2022/03/05 07:35:52;;;;;;;107.72;25.88;;;;;;;-0.16;100.00;101740.00;5064403;28;20032;-84
2022/03/05 07:38:18;;;;;;;98.45;25.83;;;;;;;0.08;100.00;101760.16;5105380;28;20388;-82
2022/03/05 07:40:44;;;;;;;95.70;24.70;;;;;;;0.15;100.00;101761.78;5113548;28;20032;-81
2022/03/05 07:43:09;;;;;;;77.22;22.08;;;;;;;0.28;100.00;101757.03;5077971;28;20040;-80
2022/03/05 07:45:35;;;;;;;79.78;20.55;;;;;;;0.22;100.00;101750.88;5069642;28;20027;-84
2022/03/05 07:48:00;;;;;;;69.32;20.27;;;;;;;0.41;100.00;101760.34;5083142;28;20120;-84
2022/03/05 07:50:26;;;;;;;61.80;19.75;;;;;;;0.54;100.00;101774.41;5066014;28;20025;-83
2022/03/05 07:52:51;;;;;;;64.40;19.98;;;;;;;0.51;100.00;101748.44;5070517;28;20020;-83
2022/03/05 07:55:17;;;;;;;68.05;20.75;;;;;;;0.80;100.00;101771.09;5095698;28;20028;-83
2022/03/05 07:57:42;;;;;;;69.75;20.73;;;;;;;0.82;100.00;101780.06;5066220;28;20029;-84
2022/03/05 08:00:08;;;;;;;75.85;21.27;;;;;;;0.81;100.00;101778.28;5089043;28;20040;-80
2022/03/05 08:02:36;;;;;;;65.82;20.05;;;;;;;0.73;100.00;101759.56;5071199;28;20035;-84
2022/03/05 08:05:01;;;;;;;65.55;20.80;;;;;;;0.92;100.00;101786.13;5065444;28;20123;-80
2022/03/05 08:07:27;;;;;;;63.15;20.15;;;;;;;1.30;100.00;101781.59;5098166;28;20071;-80
2022/03/05 08:09:52;;;;;;;63.83;20.42;;;;;;;1.33;100.00;101786.00;5082460;28;20048;-80
2022/03/05 08:12:18;;;;;;;72.38;21.27;;;;;;;1.41;100.00;101794.78;5083398;28;20476;-79
2022/03/05 08:14:45;;;;;;;64.30;20.73;;;;;;;1.68;100.00;101798.56;5084171;28;20028;-81
2022/03/05 08:17:12;;;;;;;65.85;20.48;;;;;;;1.56;100.00;101791.69;5095571;28;20048;-81
2022/03/05 08:19:37;;;;;;;71.13;22.10;;;;;;;1.79;100.00;101791.06;5088185;28;20036;-81
2022/03/05 08:22:03;;;;;;;69.32;21.60;;;;;;;1.86;100.00;101790.91;5100227;28;20033;-81
2022/03/05 08:24:29;;;;;;;70.47;21.77;;;;;;;1.98;100.00;101779.75;5084513;28;20040;-82
2022/03/05 08:26:55;;;;;;;74.95;21.63;;;;;;;2.20;100.00;101793.53;5082179;28;20029;-82
2022/03/05 08:29:21;;;;;;;72.43;21.25;;;;;;;2.54;100.00;101792.50;5093589;28;20072;-83
2022/03/05 08:31:46;;;;;;;69.82;21.85;;;;;;;2.06;100.00;101775.00;5081509;28;20055;-82
2022/03/05 08:34:11;;;;;;;71.03;23.20;;;;;;;2.47;100.00;101782.84;5085154;28;20044;-81
2022/03/05 08:36:37;;;;;;;74.00;22.60;;;;;;;2.84;100.00;101793.41;5085497;28;20047;-81
2022/03/05 08:39:03;;;;;;;73.75;21.77;;;;;;;2.72;100.00;101796.47;5069342;28;20025;-82
2022/03/05 08:41:28;;;;;;;82.78;24.15;;;;;;;3.03;100.00;101788.25;5081347;28;20066;-82
2022/03/05 08:43:54;;;;;;;72.63;22.85;;;;;;;3.16;100.00;101786.03;5108423;28;20026;-82
2022/03/05 08:46:20;;;;;;;72.00;24.13;;;;;;;3.27;100.00;101783.88;5103947;28;20395;-80
2022/03/05 08:48:46;;;;;;;75.50;23.95;;;;;;;3.50;100.00;101787.63;5098895;28;20110;-79
2022/03/05 08:51:12;;;;;;;80.47;25.05;;;;;;;3.28;100.00;101788.34;5105822;28;20066;-80
2022/03/05 08:53:38;;;;;;;78.13;22.92;;;;;;;3.93;100.00;101794.22;5122707;28;20044;-80
2022/03/05 08:56:04;;;;;;;73.85;23.95;;;;;;;3.79;100.00;101788.44;5104420;28;20067;-81
2022/03/05 08:58:29;;;;;;;77.75;24.17;;;;;;;4.29;100.00;101787.50;5112404;28;20032;-81
2022/03/05 09:00:59;;;;;;;70.85;23.25;;;;;;;5.24;100.00;101788.25;5122023;28;20031;-80
2022/03/05 09:03:25;;;;;;;76.07;23.50;;;;;;;4.18;100.00;101785.19;5122955;28;20499;-82
2022/03/05 09:05:51;;;;;;;82.40;25.35;;;;;;;4.19;100.00;101779.69;5091047;28;20056;-81
2022/03/05 09:08:17;;;;;;;76.43;24.33;;;;;;;4.12;100.00;101764.63;5079327;28;20037;-82
2022/03/05 09:10:43;;;;;;;78.80;25.50;;;;;;;4.77;100.00;101779.28;5076630;28;20130;-84
2022/03/05 09:13:09;;;;;;;81.18;25.05;;;;;;;4.77;100.00;101771.16;5083245;28;20120;-82
2022/03/05 09:15:34;;;;;;;78.50;24.42;;;;;;;4.82;100.00;101779.09;5105558;28;20032;-83
2022/03/05 09:18:00;;;;;;;77.93;24.98;;;;;;;5.81;99.59;101777.66;5087355;28;20033;-82
2022/03/05 09:20:25;;;;;;;66.57;23.45;;;;;;;5.40;100.00;101783.06;5066262;28;20037;-82
2022/03/05 09:22:51;;;;;;;79.95;26.45;;;;;;;5.73;97.95;101777.13;5080804;28;20076;-84
2022/03/05 09:25:17;;;;;;;86.22;26.98;;;;;;;5.22;100.00;101780.16;5091287;28;20032;-82
2022/03/05 09:27:42;;;;;;;73.15;24.08;;;;;;;5.20;100.00;101776.66;5068144;28;20166;-82
2022/03/05 09:30:09;;;;;;;80.35;25.88;;;;;;;5.79;99.92;101774.13;5068867;28;20032;-82
2022/03/05 09:32:35;;;;;;;75.13;25.80;;;;;;;5.98;98.81;101777.81;5066990;28;20055;-82
2022/03/05 09:35:01;;;;;;;71.78;25.08;;;;;;;6.09;96.41;101773.75;5058541;28;20040;-81
2022/03/05 09:37:28;;;;;;;74.50;26.52;;;;;;;6.61;94.27;101769.47;5087657;28;20136;-81
2022/03/05 09:39:54;;;;;;;77.47;25.58;;;;;;;5.97;99.75;101770.63;5087691;28;20032;-80
2022/03/05 09:42:19;;;;;;;75.70;25.38;;;;;;;6.76;92.68;101764.25;5087724;28;20480;-81
2022/03/05 09:44:45;;;;;;;75.05;24.65;;;;;;;5.80;96.72;101779.47;5088024;28;20028;-81
2022/03/05 09:47:11;;;;;;;68.03;24.73;;;;;;;6.33;94.91;101782.59;5086373;28;20392;-81
2022/03/05 09:49:38;;;;;;;74.88;25.25;;;;;;;6.76;95.00;101776.00;5069911;28;20040;-81
2022/03/05 09:52:05;;;;;;;70.63;25.13;;;;;;;6.98;90.64;101755.91;5086227;28;20044;-83
2022/03/05 09:54:30;;;;;;;73.20;24.83;;;;;;;7.01;93.34;101779.38;5070027;28;20071;-82
2022/03/05 09:56:56;;;;;;;72.93;25.42;;;;;;;6.34;96.11;101778.94;5104269;28;20056;-82
2022/03/05 09:59:22;;;;;;;73.00;25.63;;;;;;;6.58;93.89;101779.63;5103881;28;20032;-81
2022/03/05 10:01:47;;;;;;;76.63;26.67;;;;;;;6.69;93.73;101768.22;5102239;28;20034;-81
2022/03/05 10:04:25;;;;;;;76.60;25.75;;;;;;;7.10;91.39;101785.25;5085227;28;20029;-81
2022/03/05 10:07:08;;;;;;;72.30;25.15;;;;;;;6.88;94.12;101774.53;5084748;28;20058;-80
2022/03/05 10:09:35;;;;;;;68.93;22.88;;;;;;;7.80;87.52;101766.22;5084692;28;20028;-80
2022/03/05 10:12:00;;;;;;;77.45;25.90;;;;;;;7.18;89.54;101773.97;5085356;28;20513;-80
2022/03/05 10:14:25;;;;;;;70.53;24.17;;;;;;;7.72;87.88;101768.47;5091452;28;20032;-81
2022/03/05 10:16:59;;;;;;;69.70;24.45;;;;;;;7.69;86.89;101764.09;5104431;28;20119;-80
2022/03/05 10:19:25;;;;;;;73.43;27.33;;;;;;;8.10;86.79;101766.47;5078771;28;20029;-78
2022/03/05 10:22:08;;;;;;;68.75;25.35;;;;;;;7.99;86.10;101759.81;5117000;28;20044;-80
2022/03/05 10:24:37;;;;;;;;;;;;;;;7.53;90.67;101768.59;5103535;28;20032;-80
2022/03/05 10:27:05;;;;;;;72.25;25.27;;;;;;;7.94;86.23;101753.75;5102091;28;19941;-80
2022/03/05 10:29:37;;;;;;;69.18;24.30;;;;;;;7.94;82.31;101754.63;5088274;28;20032;-79
2022/03/05 10:32:20;;;;;;;65.20;24.93;;;;;;;7.54;84.22;101753.97;5121485;28;20097;-79
2022/03/05 10:34:48;;;;;;;68.93;25.15;;;;;;;8.02;82.17;101766.00;5096103;28;20070;-81
2022/03/05 10:37:14;;;;;;;72.93;25.80;;;;;;;8.13;82.43;101768.13;5086212;28;20080;-81
2022/03/05 10:39:40;;;;;;;66.85;23.65;;;;;;;8.53;77.74;101767.84;5084333;28;20092;-81
2022/03/05 10:42:26;;;;;;;56.90;22.95;;;;;;;7.79;81.20;101761.78;5104663;28;20107;-80
2022/03/05 10:45:00;;;;;;;65.97;25.13;;;;;;;8.14;80.60;101758.97;5120382;28;20036;-80
2022/03/05 10:47:35;;;;;;;66.47;24.40;;;;;;;8.07;76.37;101750.25;5087971;28;20088;-80
2022/03/05 10:50:04;;;;;;;67.85;25.13;;;;;;;8.25;81.55;101751.09;5103278;28;20044;-81
2022/03/05 10:52:43;;;;;;;61.72;24.58;;;;;;;8.54;75.08;101764.13;5084259;28;20127;-82
2022/03/05 10:55:36;;;;;;;66.65;24.85;;;;;;;8.03;77.97;101766.84;5084678;28;20052;-81
2022/03/05 10:58:17;;;;;;;58.90;23.42;;;;;;;8.32;75.13;101754.38;5085489;28;20045;-82